LSGG/GVA METAR and TAF weather

Enter ICAO airport designator
Station Type Date Time Source
LSGG METAR 2018/12/10 02:20 UTC NOAA

LSGG 100220Z AUTO VRB02KT 9999 -RA BKN027 07/04 Q1024 NOSIG


Station Type Date Time Source
LSGG Decoded METAR 2018/12/10 02:20 UTC NOAA

Geneve-Cointrin, Switzerland (LSGG) 46-15N 006-08E 416M
Dec 09, 2018 - 09:20 PM EST / 2018.12.10 0220 UTC
Wind: Variable at 2 MPH (2 KT):0
Visibility: greater than 7 mile(s):0
Sky conditions: mostly cloudy
Weather: light rain
Temperature: 44 F (7 C)
Dew Point: 39 F (4 C)
Relative Humidity: 81%
Pressure (altimeter): 30.24 in. Hg (1024 hPa)
ob: LSGG 100220Z AUTO VRB02KT 9999 -RA BKN027 07/04 Q1024 NOSIG
cycle: 2

Station Type Date Time Source
LSGG TAF 2018/12/10 03:36 UTC NOAA

TAF LSGG 100225Z 1003/1109 VRB04KT 9999 FEW015 SCT030 BKN050 TX06/1015Z TN05/1006Z TNM00/1106Z PROB30
TEMPO 1003/1021 23015KT SHRA
TEMPO 1006/1109 SCT040 SCT060


Example: see airport list